Green Oak Township, Michigan
Current Conditions -  °F | °C
As of 8:55 PM on Sunday 21 Dec 2014 (Local Time) from KOZW Reporting Station
Overcast Overcast  
Wind Chill: 21°   Ceiling: 5000
Heat Index: 30°   Visibility: 7mi
Dew Point: 24°   Wind: 9mph
Humidity: 80%   Direction: 130°SE
Pressure: 30.18"   Gusts: NA
Location:  42.5333°N, 83.7735°W
Report Text: KOZW 220155Z AUTO 13008KT 7SM OVC050 M01/M04 A3018 RMK AO2 T10121042
Loading
Personal Weather Stations






























Interactive Weather Map New forecast layout! Learn more

10-Day Weather Forecast

Advertisements
Track Severe Weather on mobile